Time;durP1;ratioP1;P1;durP2;ratioP2;P2;SDS_P1;SDS_P2;PMS_P1;PMS_P2;Temp;Humidity;BMP_temperature;BMP_pressure;BME280_temperature;BME280_humidity;BME280_pressure;Samples;Min_cycle;Max_cycle;Signal;HPM_P1;HPM_P2
2023/12/25 00:00:58;;;;;;;6.25;2.97;;;;;;;20.35;55.29;95746.34;21125284;27;20446;-55
2023/12/25 00:11:17;;;;;;;4.63;2.53;;;;;;;20.33;55.61;95748.63;21141682;27;20047;-54
2023/12/25 00:21:37;;;;;;;11.02;5.00;;;;;;;20.27;55.17;95761.63;21130847;27;20052;-53
2023/12/25 00:31:56;;;;;;;9.93;4.03;;;;;;;20.22;54.16;95777.34;21095598;27;20058;-54
2023/12/25 00:42:16;;;;;;;10.48;4.18;;;;;;;20.11;53.60;95804.94;21142086;27;20377;-53
2023/12/25 00:52:36;;;;;;;9.30;3.15;;;;;;;20.07;53.27;95804.09;21213375;27;20088;-54
2023/12/25 01:02:56;;;;;;;5.72;2.92;;;;;;;20.02;53.09;95809.75;21197047;27;20040;-54
2023/12/25 01:13:15;;;;;;;8.07;3.42;;;;;;;19.98;53.10;95802.69;21192933;27;20048;-53
2023/12/25 01:23:35;;;;;;;7.28;3.28;;;;;;;19.95;52.83;95799.56;21191430;27;20380;-52
2023/12/25 01:33:54;;;;;;;6.18;2.72;;;;;;;19.90;52.69;95813.34;21175287;27;20051;-54
2023/12/25 01:44:13;;;;;;;6.63;2.90;;;;;;;19.88;52.68;95809.41;21208037;27;20039;-54
2023/12/25 01:54:33;;;;;;;5.40;2.92;;;;;;;19.85;52.60;95820.91;21231506;27;20043;-53
2023/12/25 02:04:53;;;;;;;5.65;2.38;;;;;;;19.82;52.44;95827.81;21214181;27;20031;-56
2023/12/25 02:15:12;;;;;;;4.72;2.42;;;;;;;19.79;52.49;95812.28;21165831;27;20039;-56
2023/12/25 02:25:33;;;;;;;7.50;2.22;;;;;;;19.75;52.48;95809.50;21168930;27;20131;-56
2023/12/25 02:35:53;;;;;;;5.15;2.05;;;;;;;19.73;52.30;95814.47;21158647;27;20048;-57
2023/12/25 02:46:13;;;;;;;4.53;1.85;;;;;;;19.68;52.26;95838.22;21229745;27;20051;-55
2023/12/25 02:56:32;;;;;;;5.82;2.05;;;;;;;19.67;52.31;95852.88;21145602;28;20043;-56
2023/12/25 03:06:52;;;;;;;4.03;2.00;;;;;;;19.64;52.22;95850.84;21190470;27;20399;-55
2023/12/25 03:17:12;;;;;;;3.25;1.90;;;;;;;19.62;52.17;95837.72;21226536;27;20047;-56
2023/12/25 03:27:31;;;;;;;3.10;1.95;;;;;;;19.57;52.24;95848.78;21192510;27;20199;-56
2023/12/25 03:37:52;;;;;;;2.88;1.50;;;;;;;19.56;52.07;95863.41;21192269;27;20483;-56
2023/12/25 03:48:11;;;;;;;3.80;1.55;;;;;;;19.54;52.04;95858.38;21211444;27;20047;-55
2023/12/25 03:58:33;;;;;;;3.00;1.63;;;;;;;19.52;52.10;95863.34;21177912;27;20047;-56
2023/12/25 04:08:53;;;;;;;3.53;1.50;;;;;;;19.49;52.04;95869.41;21196138;27;20039;-54
2023/12/25 04:19:13;;;;;;;2.15;1.30;;;;;;;19.45;52.11;95868.53;21154035;27;20056;-52
2023/12/25 04:29:32;;;;;;;3.72;1.58;;;;;;;19.43;52.14;95846.50;21163022;27;20062;-51
2023/12/25 04:39:52;;;;;;;2.58;1.40;;;;;;;19.42;52.08;95853.00;21173162;27;20044;-54
2023/12/25 04:50:12;;;;;;;2.05;1.50;;;;;;;19.41;52.08;95859.56;21169365;27;20059;-52
2023/12/25 05:00:32;;;;;;;2.00;1.30;;;;;;;19.37;52.15;95858.69;21175460;27;20047;-53
2023/12/25 05:10:52;;;;;;;2.15;1.35;;;;;;;19.35;52.10;95869.81;21206749;27;20415;-52
2023/12/25 05:21:11;;;;;;;3.40;1.25;;;;;;;19.30;51.99;95863.88;21167419;27;20439;-53
2023/12/25 05:31:31;;;;;;;2.47;1.13;;;;;;;19.28;52.09;95852.63;21190865;27;20588;-52
2023/12/25 05:41:53;;;;;;;1.60;1.13;;;;;;;19.30;52.01;95856.56;21185268;27;20399;-53
2023/12/25 05:52:13;;;;;;;2.60;1.42;;;;;;;19.31;51.93;95868.94;21196907;27;20506;-53
2023/12/25 06:02:32;;;;;;;1.38;1.08;;;;;;;19.36;51.79;95889.50;21165104;27;20047;-51
2023/12/25 06:12:52;;;;;;;2.83;1.40;;;;;;;19.38;51.68;95887.25;21166358;27;20416;-53
2023/12/25 06:23:11;;;;;;;1.83;1.10;;;;;;;19.41;51.49;95907.41;21169150;27;20059;-53
2023/12/25 06:33:30;;;;;;;1.75;1.23;;;;;;;19.47;51.54;95908.72;21101390;27;20059;-54
2023/12/25 06:43:50;;;;;;;2.08;1.20;;;;;;;19.53;51.34;95924.31;21130793;27;20429;-55
2023/12/25 06:54:09;;;;;;;1.50;1.10;;;;;;;19.61;51.70;95908.31;21151620;28;20044;-57
2023/12/25 07:04:29;;;;;;;1.40;0.75;;;;;;;19.65;51.86;95914.59;21138181;28;20082;-57
2023/12/25 07:14:48;;;;;;;1.50;0.90;;;;;;;19.72;52.26;95914.81;21134577;28;20105;-57
2023/12/25 07:25:08;;;;;;;2.67;0.90;;;;;;;19.81;52.00;95918.13;21137526;28;20504;-57
2023/12/25 07:35:28;;;;;;;1.17;0.90;;;;;;;19.81;52.39;95950.56;21133664;27;20056;-58
2023/12/25 07:45:47;;;;;;;2.85;0.90;;;;;;;19.85;52.36;95948.72;21161989;27;20097;-57
2023/12/25 07:56:07;;;;;;;0.90;0.80;;;;;;;19.92;52.30;95954.31;21144763;27;20047;-55
2023/12/25 08:06:26;;;;;;;1.95;0.82;;;;;;;20.03;52.27;95962.72;21153453;27;20468;-55
2023/12/25 08:16:46;;;;;;;3.50;1.00;;;;;;;20.15;51.96;95980.78;21123075;27;20078;-53
2023/12/25 08:27:05;;;;;;;1.80;0.73;;;;;;;20.17;50.42;95994.75;21137741;27;20044;-53
2023/12/25 08:37:24;;;;;;;2.00;0.90;;;;;;;20.19;49.29;96005.19;21129091;27;20051;-54
2023/12/25 08:47:44;;;;;;;1.17;0.65;;;;;;;20.24;49.81;95991.44;21200529;27;20682;-54
2023/12/25 08:58:04;;;;;;;3.80;0.70;;;;;;;20.29;49.41;95991.97;21180287;27;20048;-52
2023/12/25 09:08:23;;;;;;;2.30;0.70;;;;;;;20.37;48.75;96013.78;21125596;27;20040;-54
2023/12/25 09:18:43;;;;;;;3.38;0.93;;;;;;;20.42;48.53;96002.69;21169320;27;20055;-51
2023/12/25 09:29:03;;;;;;;3.83;0.95;;;;;;;20.48;49.15;96017.53;21136313;27;20082;-53
2023/12/25 09:39:22;;;;;;;5.07;0.90;;;;;;;20.59;48.87;96020.50;21159508;27;20035;-53
2023/12/25 09:49:45;;;;;;;5.75;1.52;;;;;;;20.59;48.43;96034.84;21159767;27;20048;-52
2023/12/25 10:00:07;;;;;;;12.80;3.47;;;;;;;20.62;47.59;96028.75;21149105;28;20055;-53
2023/12/25 10:10:31;;;;;;;13.93;4.05;;;;;;;20.67;47.96;96025.75;21146540;28;20036;-53
2023/12/25 10:20:57;;;;;;;12.02;4.20;;;;;;;20.68;48.29;96024.63;21148713;28;20044;-51
2023/12/25 10:31:26;;;;;;;11.73;3.73;;;;;;;20.67;48.51;96020.34;21147403;28;20425;-55
2023/12/25 10:41:48;;;;;;;12.40;3.95;;;;;;;20.63;48.74;96027.59;21147390;27;20055;-56
2023/12/25 10:52:10;;;;;;;10.52;3.45;;;;;;;20.63;48.90;96021.41;21153980;28;20040;-55
2023/12/25 11:02:32;;;;;;;7.63;3.17;;;;;;;20.62;48.93;96003.59;21134604;28;20048;-55
2023/12/25 11:12:52;;;;;;;7.82;3.05;;;;;;;20.65;48.90;95987.44;21117892;28;20073;-56
2023/12/25 11:23:12;;;;;;;7.68;3.25;;;;;;;20.62;49.02;95998.97;21134017;28;20503;-56
2023/12/25 11:33:42;;;;;;;5.90;3.17;;;;;;;20.60;49.23;95995.03;21166956;28;20404;-57
2023/12/25 11:44:08;;;;;;;6.32;2.83;;;;;;;20.55;49.17;95990.66;21094250;28;20627;-53
2023/12/25 11:54:33;;;;;;;6.95;2.78;;;;;;;20.53;49.48;96001.81;21154453;28;20048;-52
2023/12/25 12:04:53;;;;;;;5.57;2.63;;;;;;;20.52;49.33;96011.09;21178076;28;20434;-52
2023/12/25 12:15:12;;;;;;;6.53;2.60;;;;;;;20.50;49.35;96009.84;21160887;28;20062;-51
2023/12/25 12:25:32;;;;;;;5.57;2.70;;;;;;;20.47;49.33;96016.75;21144931;28;20100;-53
2023/12/25 12:35:52;;;;;;;6.88;2.30;;;;;;;20.50;49.40;96020.66;21148253;28;20051;-52
2023/12/25 12:46:13;;;;;;;7.43;2.30;;;;;;;20.53;49.39;96022.69;21133342;28;20442;-54
2023/12/25 12:56:33;;;;;;;4.68;2.30;;;;;;;20.50;49.44;96036.91;21186152;28;20054;-53
2023/12/25 13:06:53;;;;;;;4.32;2.00;;;;;;;20.51;49.32;96030.38;21185903;28;20054;-52
2023/12/25 13:17:13;;;;;;;5.57;2.63;;;;;;;20.55;49.19;96042.06;21147340;27;20044;-54
2023/12/25 13:27:33;;;;;;;2.90;1.83;;;;;;;20.53;49.40;96047.81;21156702;28;20148;-52
2023/12/25 13:37:52;;;;;;;3.10;1.90;;;;;;;20.58;49.23;96046.78;21156318;28;20055;-52
2023/12/25 13:48:12;;;;;;;3.45;2.05;;;;;;;20.60;49.15;96052.66;21213709;27;20047;-56
2023/12/25 13:58:31;;;;;;;4.75;2.20;;;;;;;20.61;49.20;96059.63;21141799;28;20063;-53
2023/12/25 14:08:50;;;;;;;3.00;1.70;;;;;;;20.62;49.10;96085.56;21143228;28;20055;-52
2023/12/25 14:19:10;;;;;;;3.03;1.80;;;;;;;20.63;49.03;96095.25;21108450;28;20052;-52
2023/12/25 14:29:29;;;;;;;2.75;1.90;;;;;;;20.61;49.10;96081.28;21141467;28;20070;-52
2023/12/25 14:39:49;;;;;;;2.92;1.52;;;;;;;20.66;49.07;96094.56;21145849;28;20622;-52
2023/12/25 14:50:09;;;;;;;2.83;1.45;;;;;;;20.70;48.98;96086.53;21148194;28;20094;-52
2023/12/25 15:00:30;;;;;;;2.40;1.45;;;;;;;20.71;49.02;96128.69;21157089;28;20531;-55
2023/12/25 15:10:49;;;;;;;3.15;1.38;;;;;;;20.70;48.81;96122.50;21145882;28;20407;-53
2023/12/25 15:21:09;;;;;;;1.75;1.30;;;;;;;20.73;48.88;96108.25;21172248;28;20043;-51
2023/12/25 15:31:28;;;;;;;2.78;1.20;;;;;;;20.73;48.80;96124.50;21164621;28;20056;-53
2023/12/25 15:41:48;;;;;;;2.33;1.50;;;;;;;20.77;48.75;96148.19;21147722;28;20122;-52
2023/12/25 15:52:09;;;;;;;1.70;1.27;;;;;;;20.76;48.71;96160.94;21090910;28;20056;-53
2023/12/25 16:02:28;;;;;;;2.60;1.40;;;;;;;20.78;48.74;96190.34;21119744;28;20055;-52
2023/12/25 16:12:47;;;;;;;2.17;1.42;;;;;;;20.80;48.57;96166.44;21151186;28;20052;-56
2023/12/25 16:23:07;;;;;;;1.40;1.13;;;;;;;20.81;48.58;96163.38;21150071;28;20052;-53
2023/12/25 16:33:27;;;;;;;1.40;0.95;;;;;;;20.80;48.01;96185.41;21146694;27;20131;-52
2023/12/25 16:43:47;;;;;;;2.63;1.10;;;;;;;20.81;48.10;96192.38;21146703;27;20043;-50
2023/12/25 16:54:06;;;;;;;5.75;1.88;;;;;;;20.97;49.73;96214.84;21125066;27;20044;-58
2023/12/25 17:04:25;;;;;;;70.63;19.48;;;;;;;21.13;50.96;96231.91;21190444;27;20044;-55
2023/12/25 17:14:45;;;;;;;66.78;20.48;;;;;;;21.21;51.79;96211.22;21144399;27;20054;-54
2023/12/25 17:25:05;;;;;;;79.60;21.02;;;;;;;21.33;52.89;96232.78;21158240;27;20050;-63
2023/12/25 17:35:25;;;;;;;68.22;20.90;;;;;;;21.40;53.14;96253.06;21126597;28;20426;-67
2023/12/25 17:45:44;;;;;;;53.17;19.50;;;;;;;21.38;52.98;96239.84;21134306;27;20044;-57
2023/12/25 17:56:05;;;;;;;48.35;17.33;;;;;;;21.40;53.28;96236.81;21153737;27;20036;-58
2023/12/25 18:06:26;;;;;;;51.88;18.20;;;;;;;21.36;53.50;96246.78;21123652;27;20395;-60
2023/12/25 18:16:46;;;;;;;42.28;15.27;;;;;;;21.41;53.72;96262.78;21160225;27;20406;-59
2023/12/25 18:27:05;;;;;;;42.17;14.65;;;;;;;21.36;53.99;96263.03;21088913;27;20047;-60
2023/12/25 18:37:25;;;;;;;36.00;14.15;;;;;;;21.42;54.31;96235.31;21150484;27;20043;-58
2023/12/25 18:47:44;;;;;;;24.20;9.10;;;;;;;21.36;52.31;96242.13;21141168;27;20055;-55
2023/12/25 18:58:04;;;;;;;20.30;7.40;;;;;;;21.24;51.71;96263.88;21136234;28;20043;-61
2023/12/25 19:08:24;;;;;;;14.95;6.28;;;;;;;21.18;51.72;96270.69;21143185;28;20055;-59
2023/12/25 19:18:43;;;;;;;14.85;6.10;;;;;;;21.17;50.77;96252.84;21133904;28;20039;-56
2023/12/25 19:29:02;;;;;;;13.05;5.80;;;;;;;21.16;49.85;96273.75;21125872;28;20060;-62
2023/12/25 19:39:22;;;;;;;9.90;4.40;;;;;;;21.15;50.86;96272.19;21118026;28;20052;-60
2023/12/25 19:49:42;;;;;;;10.30;4.63;;;;;;;21.14;51.13;96267.91;21159036;27;20400;-58
2023/12/25 20:00:04;;;;;;;9.57;4.38;;;;;;;21.13;51.63;96264.41;21170265;27;20123;-58
2023/12/25 20:10:29;;;;;;;10.18;4.32;;;;;;;21.13;51.94;96275.25;21151245;27;20051;-52
2023/12/25 20:20:48;;;;;;;12.43;4.47;;;;;;;21.10;52.16;96265.09;21138894;27;20043;-56
2023/12/25 20:31:09;;;;;;;4.97;3.25;;;;;;;21.04;50.41;96246.75;21123779;27;20052;-61
2023/12/25 20:41:30;;;;;;;9.27;3.67;;;;;;;21.01;51.52;96248.22;21130615;27;20101;-59
2023/12/25 20:51:50;;;;;;;9.68;3.80;;;;;;;20.99;51.73;96228.81;21121332;27;20507;-56
2023/12/25 21:02:09;;;;;;;6.95;3.75;;;;;;;20.97;51.91;96236.50;21149977;27;20052;-58
2023/12/25 21:12:29;;;;;;;8.40;4.22;;;;;;;20.96;52.31;96248.47;21124999;27;20098;-53
2023/12/25 21:22:48;;;;;;;10.35;3.97;;;;;;;20.96;52.54;96245.00;21121713;27;20043;-56
2023/12/25 21:33:08;;;;;;;6.47;3.20;;;;;;;20.91;52.81;96248.72;21138248;27;20417;-53
2023/12/25 21:43:27;;;;;;;8.65;3.22;;;;;;;20.88;53.08;96241.31;21134149;27;20044;-54
2023/12/25 21:53:47;;;;;;;8.95;3.45;;;;;;;20.85;53.19;96242.75;21155766;27;20047;-56
2023/12/25 22:04:06;;;;;;;7.72;3.50;;;;;;;20.86;53.56;96251.69;21129874;27;20048;-52
2023/12/25 22:14:25;;;;;;;6.95;3.45;;;;;;;20.83;53.53;96233.41;21123161;27;20452;-56
2023/12/25 22:24:47;;;;;;;101.22;39.78;;;;;;;20.83;53.64;96255.06;21148416;27;20048;-57
2023/12/25 22:35:06;;;;;;;38.70;15.43;;;;;;;20.76;53.44;96257.56;21134732;27;20055;-58
2023/12/25 22:45:26;;;;;;;26.73;10.95;;;;;;;20.66;53.34;96243.44;21150084;27;20044;-58
2023/12/25 22:55:46;;;;;;;29.02;10.85;;;;;;;20.60;53.58;96233.19;21079154;28;20059;-58
2023/12/25 23:06:06;;;;;;;22.20;9.65;;;;;;;20.58;53.79;96232.69;21139591;28;20051;-56
2023/12/25 23:16:25;;;;;;;24.17;9.00;;;;;;;20.49;53.93;96222.81;21117470;28;20044;-57
2023/12/25 23:26:45;;;;;;;20.88;8.60;;;;;;;20.44;54.13;96214.16;21157685;28;20069;-58
2023/12/25 23:37:04;;;;;;;20.30;7.97;;;;;;;20.40;54.05;96195.09;21195201;27;20059;-57
2023/12/25 23:47:23;;;;;;;17.40;7.93;;;;;;;20.40;53.97;96194.31;21210544;27;20122;-58
2023/12/25 23:57:43;;;;;;;20.25;8.73;;;;;;;20.37;54.11;96181.50;21203076;27;20055;-57
